< < Back
Terminal Aerodrome Forecast


Current Version              Previous Versions:   1  2  3  4  5  6  7  8  9  

Terminal Aerodrome Forecast

016
FTUS44 KMRX 192320
TAFCHA
TAF
KCHA 192320Z 2000/2024 VRB03KT P6SM BKN250
     FM201600 20005KT P6SM SCT050 BKN150=



Latest METAR

977
SAUS80 KWBC 200800 RRB
MTRCHA
METAR KCHA 200753Z 00000KT 10SM CLR 08/07 A3011 RMK AO2 SLP193
T00780067


USA.gov is the U.S. government's official web portal to all federal, state and local government web resources and services.